Goldfield, Colorado
Current Conditions -  °F | °C
As of 10:56 AM on Sunday 25 Jan 2015 (Local Time) from KCWN Reporting Station
Clear Clear  
Wind Chill: 39°   Ceiling: Unl
Heat Index: 43°   Visibility: 10mi
Dew Point: 27°   Wind: 7mph
Humidity: 53%   Direction: 160°SSE
Pressure: 29.91"   Gusts: NA
Location:  38.6816°N, 105.071°W
Report Text: KCWN 251756Z AUTO 16006KT 10SM CLR 06/M03 A2991 RMK AO2 SLP118 T00601030 10066 21010 52012
Loading
Personal Weather Stations






























Interactive Weather Map New forecast layout! Learn more

10-Day Weather Forecast

Advertisements
Track Severe Weather on mobile